»·PEaware :: AAL2321 KLAS-KLAX

AAL2321 :: KLAS-KLAX

FLIGHT INFORMATION

Flight Status: Arrived
Operator:
American Airlines
More flights by this operator :: More flights under this callsign
Pilot: Alfonso U. (14209)
Aircraft: BOEING 737-800
(B738)
More flights by this aircraft type
Origin: KLAS McCarran Intl
United States
Destination: KLAX Los Angeles Intl
United States
More flights between these airports :: More routes between these airports
Route: +BOACH7 RIKII SHTNR ANJIL1
File this flight plan on PilotEdge
Remarks:
Altitude:
(Current/Filed)
34,000ft
Speed:
(Current/Filed)
400kts
Departed: 05-Jun-17 08:16 AM
Arrived: 05-Jun-17 09:00 AM
Distance/Time
Traveled:
205nm/0:44
Distance/Time
To Go:
Arrived

Flight Plot

Page will automatically refresh every two minutes.

Flight plan parsing failed; only flown route is shown


Map Options




Map Legend


Flown Route
Filed Route
Departure Airport
Arrival Airport
Navaid (VOR, NDB)
Fix

Horizontal Profiles

Position Reports

Time Latitude Longitude Heading Altitude Ground
Speed
05-Jun-17 07:45 36.079929 -115.147114 0 2149ft 0kts
05-Jun-17 07:46 36.079929 -115.147114 57 2149ft 0kts
05-Jun-17 07:47 36.079929 -115.147114 57 2149ft 0kts
05-Jun-17 07:48 36.079929 -115.147114 57 2149ft 0kts
05-Jun-17 07:49 36.079929 -115.147114 57 2149ft 0kts
05-Jun-17 07:50 36.079929 -115.147114 57 2149ft 0kts
05-Jun-17 07:51 36.079929 -115.147114 57 2149ft 0kts
05-Jun-17 07:52 36.079929 -115.147114 57 2149ft 0kts
05-Jun-17 07:53 36.079929 -115.147114 57 2149ft 0kts
05-Jun-17 07:54 36.079929 -115.147114 57 2149ft 0kts
05-Jun-17 07:55 36.079929 -115.147114 57 2149ft 0kts
05-Jun-17 07:56 36.079929 -115.147114 57 2149ft 0kts
05-Jun-17 07:57 36.079929 -115.147114 57 2149ft 0kts
05-Jun-17 07:58 36.079929 -115.147114 57 2149ft 0kts
05-Jun-17 07:59 36.079792 -115.147374 57 2149ft 3kts
05-Jun-17 08:00 36.079671 -115.147606 57 2149ft 0kts
05-Jun-17 08:01 36.079671 -115.147606 57 2149ft 0kts
05-Jun-17 08:02 36.079671 -115.147606 57 2149ft 0kts
05-Jun-17 08:03 36.079671 -115.147606 57 2149ft 0kts
05-Jun-17 08:04 36.079687 -115.147576 57 2149ft 0kts
05-Jun-17 08:05 36.079718 -115.147517 56 2149ft 0kts
05-Jun-17 08:06 36.079718 -115.147517 56 2149ft 0kts
05-Jun-17 08:07 36.078382 -115.145144 94 2149ft 21kts
05-Jun-17 08:08 36.078243 -115.136340 90 2149ft 40kts
05-Jun-17 08:09 36.077471 -115.121569 131 2149ft 0kts
05-Jun-17 08:10 36.077471 -115.121569 131 2149ft 0kts
05-Jun-17 08:11 36.077471 -115.121569 131 2149ft 0kts
05-Jun-17 08:12 36.077471 -115.121569 131 2149ft 0kts
05-Jun-17 08:13 36.077471 -115.121569 131 2149ft 0kts
05-Jun-17 08:14 36.077471 -115.121569 131 2149ft 0kts
05-Jun-17 08:15 36.077471 -115.121569 131 2149ft 0kts
05-Jun-17 08:16 36.077471 -115.121569 131 2149ft 0kts
05-Jun-17 08:17 36.077444 -115.121535 135 2149ft 2kts
05-Jun-17 08:18 36.076385 -115.135640 269 2150ft 140kts
05-Jun-17 08:19 36.076301 -115.201923 269 4067ft 249kts
05-Jun-17 08:20 36.037980 -115.269114 203 6148ft 268kts
05-Jun-17 08:21 35.971636 -115.300050 190 8161ft 273kts
05-Jun-17 08:22 35.896893 -115.310211 186 10304ft 281kts
05-Jun-17 08:23 35.818167 -115.310227 177 12510ft 291kts
05-Jun-17 08:24 35.737334 -115.301338 177 14709ft 298kts
05-Jun-17 08:25 35.653396 -115.295936 183 16921ft 324kts
05-Jun-17 08:26 35.558171 -115.299454 184 19149ft 365kts
05-Jun-17 08:27 35.460326 -115.336062 210 21352ft 389kts
05-Jun-17 08:28 35.364591 -115.404311 212 23545ft 411kts
05-Jun-17 08:29 35.264790 -115.476596 212 25724ft 426kts
05-Jun-17 08:30 35.162726 -115.550364 213 27876ft 429kts
05-Jun-17 08:31 35.079684 -115.649389 232 30002ft 417kts
05-Jun-17 08:32 35.009203 -115.757227 233 32156ft 409kts
05-Jun-17 08:33 34.940585 -115.864694 234 33957ft 407kts
05-Jun-17 08:34 34.871022 -115.973032 234 34000ft 413kts
05-Jun-17 08:35 34.800690 -116.082204 235 33999ft 412kts
05-Jun-17 08:36 34.738260 -116.198670 239 32879ft 415kts
05-Jun-17 08:37 34.676434 -116.315163 238 30872ft 407kts
05-Jun-17 08:38 34.616525 -116.427635 237 28859ft 394kts
05-Jun-17 08:39 34.557823 -116.537455 237 26836ft 384kts
05-Jun-17 08:40 34.500699 -116.643938 236 24816ft 374kts
05-Jun-17 08:41 34.445422 -116.746545 236 23968ft 369kts
05-Jun-17 08:42 34.376273 -116.836163 218 23748ft 376kts
05-Jun-17 08:43 34.294567 -116.909332 217 21738ft 358kts
05-Jun-17 08:44 34.218478 -116.982849 234 19721ft 349kts
05-Jun-17 08:45 34.182602 -117.090375 250 17723ft 344kts
05-Jun-17 08:46 34.152952 -117.197490 251 16975ft 341kts
05-Jun-17 08:47 34.123048 -117.305988 251 15061ft 337kts
05-Jun-17 08:48 34.095471 -117.409728 252 13929ft 317kts
05-Jun-17 08:49 34.069302 -117.507893 247 12062ft 316kts
05-Jun-17 08:50 34.035299 -117.603742 246 11322ft 318kts
05-Jun-17 08:51 34.006085 -117.700359 261 9496ft 312kts
05-Jun-17 08:52 33.995512 -117.800363 262 8989ft 301kts
05-Jun-17 08:53 33.985634 -117.900705 263 7575ft 308kts
05-Jun-17 08:54 33.976532 -117.994041 264 5792ft 269kts
05-Jun-17 08:55 33.968656 -118.075338 263 4968ft 213kts
05-Jun-17 08:56 33.962646 -118.135221 263 4198ft 150kts
05-Jun-17 08:57 33.957768 -118.183463 263 3443ft 147kts
05-Jun-17 08:58 33.952838 -118.232036 262 2651ft 147kts
05-Jun-17 08:59 33.947910 -118.280292 262 1852ft 146kts
05-Jun-17 09:00 33.942991 -118.328421 262 1059ft 145kts
05-Jun-17 09:01 33.938393 -118.372994 261 336ft 143kts
05-Jun-17 09:02 33.934535 -118.410109 263 133ft 35kts
05-Jun-17 09:03 33.935116 -118.412480 351 133ft 0kts
05-Jun-17 09:04 33.937153 -118.412756 4 133ft 12kts
05-Jun-17 09:05 33.937222 -118.412747 7 133ft 0kts
05-Jun-17 09:06 33.937926 -118.412522 15 133ft 13kts
05-Jun-17 09:07 33.939146 -118.405370 38 133ft 6kts
05-Jun-17 09:08 33.939786 -118.404745 55 133ft 0kts
05-Jun-17 09:09 33.939786 -118.404745 55 133ft 0kts
05-Jun-17 09:10 33.939786 -118.404745 55 133ft 0kts
05-Jun-17 09:11 33.939823 -118.404676 57 133ft 2kts
05-Jun-17 09:12 33.939825 -118.404672 57 133ft 0kts

Navigation Log

Ident Type
Flight plan parsing failed, navigation log unavailable